createdAt,value
2023-03-31T00:00:58.299Z,85876.13
2023-03-31T00:03:25.667Z,85774.91
2023-03-31T00:05:59.637Z,85852.75
2023-03-31T00:08:30.869Z,85841.03
2023-03-31T00:11:02.405Z,85793.56
2023-03-31T00:13:33.689Z,85867.22
2023-03-31T00:16:09.441Z,85861.03
2023-03-31T00:18:37.626Z,85859.66
2023-03-31T00:21:29.748Z,85850.72
2023-03-31T00:23:59.498Z,85797.00
2023-03-31T00:26:28.185Z,85852.09
2023-03-31T00:28:56.177Z,85852.03
2023-03-31T00:31:24.089Z,85765.19
2023-03-31T00:33:51.359Z,85802.38
2023-03-31T00:36:21.801Z,85842.31
2023-03-31T00:38:49.243Z,85808.56
2023-03-31T00:41:16.375Z,85827.19
2023-03-31T00:44:01.480Z,85838.84
2023-03-31T00:46:31.367Z,85832.69
2023-03-31T00:49:02.685Z,85812.00
2023-03-31T00:51:34.200Z,85820.25
2023-03-31T00:54:06.293Z,85808.53
2023-03-31T00:56:39.994Z,85711.41
2023-03-31T00:59:11.310Z,85788.56
2023-03-31T01:01:43.119Z,85828.44
2023-03-31T01:04:12.883Z,85827.06
2023-03-31T01:07:12.645Z,85820.16
2023-03-31T01:09:40.050Z,85817.38
2023-03-31T01:12:09.904Z,85766.41
2023-03-31T01:14:36.952Z,85775.94
2023-03-31T01:17:05.435Z,85826.91
2023-03-31T01:19:53.182Z,85826.97
2023-03-31T01:22:50.899Z,85829.00
2023-03-31T01:25:38.802Z,85826.91
2023-03-31T01:28:32.225Z,85821.44
2023-03-31T01:31:05.603Z,85833.09
2023-03-31T01:34:11.571Z,85816.63
2023-03-31T01:37:16.603Z,85811.72
2023-03-31T01:40:10.059Z,85810.38
2023-03-31T01:42:52.068Z,85791.78
2023-03-31T01:45:40.711Z,85809.69
2023-03-31T01:48:18.332Z,85800.06
2023-03-31T01:50:50.127Z,85799.34
2023-03-31T01:53:57.708Z,85796.66
2023-03-31T01:56:37.574Z,85792.50
2023-03-31T01:59:36.324Z,85799.34
2023-03-31T02:02:11.417Z,85788.38
2023-03-31T02:05:11.084Z,85791.03
2023-03-31T02:07:51.224Z,85789.00
2023-03-31T02:10:19.951Z,85761.44
2023-03-31T02:12:48.884Z,85775.97
2023-03-31T02:15:22.405Z,85789.69
2023-03-31T02:17:55.647Z,85786.78
2023-03-31T02:20:23.675Z,85790.28
2023-03-31T02:22:54.867Z,85780.03
2023-03-31T02:25:29.047Z,85781.31
2023-03-31T02:28:02.624Z,85766.69
2023-03-31T02:30:51.854Z,85786.66
2023-03-31T02:33:19.434Z,85770.06
2023-03-31T02:35:46.613Z,85759.13
2023-03-31T02:38:14.231Z,85781.78
2023-03-31T02:40:41.774Z,85752.81
2023-03-31T02:43:08.874Z,85784.44
2023-03-31T02:45:39.355Z,85793.25
2023-03-31T02:48:10.091Z,85751.25
2023-03-31T02:51:02.858Z,85779.50
2023-03-31T02:53:48.921Z,85788.50
2023-03-31T02:56:31.134Z,85791.91
2023-03-31T02:59:25.926Z,85790.56
2023-03-31T03:02:05.108Z,85795.91
2023-03-31T03:05:01.550Z,85800.78
2023-03-31T03:07:38.963Z,85788.44
2023-03-31T03:10:16.252Z,85778.09
2023-03-31T03:13:17.551Z,85796.09
2023-03-31T03:16:21.925Z,85809.13
2023-03-31T03:19:00.172Z,85803.00
2023-03-31T03:21:28.116Z,85796.16
2023-03-31T03:23:55.499Z,85792.06
2023-03-31T03:26:24.597Z,85760.34
2023-03-31T03:28:51.978Z,85773.47
2023-03-31T03:31:19.767Z,85778.28
2023-03-31T03:33:47.001Z,85797.63
2023-03-31T03:36:14.125Z,85786.50
2023-03-31T03:38:41.327Z,85767.41
2023-03-31T03:41:08.735Z,85794.97
2023-03-31T03:43:36.024Z,85744.03
2023-03-31T03:46:03.061Z,85761.91
2023-03-31T03:48:30.247Z,85759.75
2023-03-31T03:51:00.543Z,85769.50
2023-03-31T03:53:27.693Z,85777.16
2023-03-31T03:55:54.678Z,85775.84
2023-03-31T03:58:21.643Z,85721.38
2023-03-31T04:00:48.998Z,85767.47
2023-03-31T04:03:16.690Z,85759.97
2023-03-31T04:05:43.792Z,85775.78
2023-03-31T04:08:10.975Z,85770.31
2023-03-31T04:10:38.035Z,85773.81
2023-03-31T04:13:04.959Z,85779.97
2023-03-31T04:15:32.040Z,85748.34
2023-03-31T04:17:59.004Z,85782.75
2023-03-31T04:20:30.820Z,85766.22
2023-03-31T04:22:58.031Z,85767.66
2023-03-31T04:25:25.044Z,85770.41
2023-03-31T04:27:55.454Z,85773.84
2023-03-31T04:30:23.393Z,85745.53
2023-03-31T04:32:55.778Z,85787.56
2023-03-31T04:35:25.207Z,85793.06
2023-03-31T04:37:59.257Z,85796.56
2023-03-31T04:40:26.910Z,85791.78
2023-03-31T04:42:53.944Z,85792.47
2023-03-31T04:45:20.975Z,85694.06
2023-03-31T04:47:47.930Z,85778.72
2023-03-31T04:50:17.170Z,85734.75
2023-03-31T04:52:44.921Z,85741.00
2023-03-31T04:55:12.117Z,85764.41
2023-03-31T04:57:39.135Z,85691.47
2023-03-31T05:00:11.220Z,85735.59
2023-03-31T05:02:38.293Z,85774.81
2023-03-31T05:05:06.241Z,85769.31
2023-03-31T05:07:33.272Z,85758.28
2023-03-31T05:10:00.473Z,85785.13
2023-03-31T05:12:27.601Z,85770.72
2023-03-31T05:14:54.716Z,85741.09
2023-03-31T05:17:22.420Z,85763.88
2023-03-31T05:19:49.537Z,85751.53
2023-03-31T05:22:20.657Z,85728.13
2023-03-31T05:24:47.975Z,85733.66
2023-03-31T05:27:16.219Z,85746.72
2023-03-31T05:29:44.108Z,85733.63
2023-03-31T05:32:11.161Z,85721.28
2023-03-31T05:34:38.203Z,85731.63
2023-03-31T05:37:05.556Z,85721.28
2023-03-31T05:39:34.191Z,85733.72
2023-03-31T05:42:01.217Z,85700.03
2023-03-31T05:44:28.243Z,85754.34
2023-03-31T05:46:55.352Z,85703.50
2023-03-31T05:49:22.485Z,85641.63
2023-03-31T05:51:49.506Z,85766.78
2023-03-31T05:54:16.556Z,85755.81
2023-03-31T05:56:43.624Z,85717.34
2023-03-31T05:59:10.865Z,85706.34
2023-03-31T06:01:38.025Z,85720.13
2023-03-31T06:04:05.071Z,85710.50
2023-03-31T06:06:34.757Z,85710.53
2023-03-31T06:09:07.492Z,85739.44
2023-03-31T06:11:34.750Z,85716.09
2023-03-31T06:14:01.941Z,85717.50
2023-03-31T06:16:29.595Z,85674.19
2023-03-31T06:18:57.023Z,85731.94
2023-03-31T06:21:24.079Z,85669.41
2023-03-31T06:23:55.332Z,85663.22
2023-03-31T06:26:22.991Z,85702.44
2023-03-31T06:28:50.166Z,85715.50
2023-03-31T06:31:19.940Z,85714.78
2023-03-31T06:33:47.673Z,85717.53
2023-03-31T06:36:17.395Z,85705.84
2023-03-31T06:38:45.079Z,85725.75
2023-03-31T06:41:14.696Z,85680.44
2023-03-31T06:43:42.026Z,85722.97
2023-03-31T06:46:09.516Z,85668.03
2023-03-31T06:48:37.234Z,85687.22
2023-03-31T06:51:06.310Z,85713.28
2023-03-31T06:53:34.597Z,85712.53
2023-03-31T06:56:01.729Z,85695.31
2023-03-31T06:58:31.332Z,85662.31
2023-03-31T07:00:59.266Z,85700.72
2023-03-31T07:03:26.525Z,85715.78
2023-03-31T07:05:55.509Z,85704.75
2023-03-31T07:08:23.772Z,85717.06
2023-03-31T07:11:00.213Z,85718.41
2023-03-31T07:13:28.412Z,85683.34
2023-03-31T07:15:56.532Z,85718.97
2023-03-31T07:18:35.127Z,85711.34
2023-03-31T07:21:05.768Z,85711.94
2023-03-31T07:23:35.986Z,85702.28
2023-03-31T07:26:03.524Z,85687.78
2023-03-31T07:28:31.362Z,85707.59
2023-03-31T07:30:58.521Z,85699.16
2023-03-31T07:33:25.708Z,85707.97
2023-03-31T07:36:07.811Z,85711.94
2023-03-31T07:38:38.789Z,85693.97
2023-03-31T07:41:09.691Z,85704.75
2023-03-31T07:43:37.419Z,85690.97
2023-03-31T07:46:05.930Z,85713.41
2023-03-31T07:48:33.971Z,85704.31
2023-03-31T07:51:01.122Z,85645.97
2023-03-31T07:53:33.264Z,85705.38
2023-03-31T07:56:00.456Z,85690.09
2023-03-31T07:58:27.560Z,85702.94
2023-03-31T08:00:54.592Z,85698.59
2023-03-31T08:03:21.758Z,85668.88
2023-03-31T08:05:52.574Z,85650.91
2023-03-31T08:08:19.748Z,85670.53
2023-03-31T08:10:47.711Z,85679.13
2023-03-31T08:13:14.915Z,85698.97
2023-03-31T08:15:41.959Z,85653.41
2023-03-31T08:18:09.203Z,85681.22
2023-03-31T08:20:36.763Z,85651.66
2023-03-31T08:23:05.585Z,85665.13
2023-03-31T08:25:32.616Z,85656.09
2023-03-31T08:27:59.564Z,85683.19
2023-03-31T08:30:26.634Z,85678.38
2023-03-31T08:32:53.657Z,85684.44
2023-03-31T08:35:20.847Z,85679.34
2023-03-31T08:37:47.983Z,85649.78
2023-03-31T08:40:20.975Z,85656.34
2023-03-31T08:42:53.986Z,85665.59
2023-03-31T08:45:26.503Z,85627.69
2023-03-31T08:48:04.583Z,85651.00
2023-03-31T08:50:35.802Z,85599.94
2023-03-31T08:53:12.714Z,85585.78
2023-03-31T08:55:52.198Z,85589.56
2023-03-31T08:58:28.095Z,85611.13
2023-03-31T09:01:17.173Z,85593.75
2023-03-31T09:03:50.849Z,85605.50
2023-03-31T09:06:34.993Z,85593.66
2023-03-31T09:09:03.810Z,85571.22
2023-03-31T09:11:40.579Z,85610.41
2023-03-31T09:14:38.320Z,85612.03
2023-03-31T09:17:17.433Z,85607.50
2023-03-31T09:20:05.428Z,85557.63
2023-03-31T09:22:37.116Z,85606.53
2023-03-31T09:25:07.783Z,85589.13
2023-03-31T09:27:37.615Z,85599.06
2023-03-31T09:30:10.836Z,85597.47
2023-03-31T09:32:39.687Z,85596.09
2023-03-31T09:35:22.328Z,85588.84
2023-03-31T09:37:50.498Z,85582.97
2023-03-31T09:40:21.120Z,85592.72
2023-03-31T09:42:54.662Z,85584.41
2023-03-31T09:45:21.866Z,85588.91
2023-03-31T09:47:55.141Z,85589.53
2023-03-31T09:50:25.325Z,85559.66
2023-03-31T09:52:56.663Z,85598.94
2023-03-31T09:56:01.703Z,85575.47
2023-03-31T09:58:28.824Z,85571.13
2023-03-31T10:01:02.828Z,85588.53
2023-03-31T10:03:36.816Z,85572.72
2023-03-31T10:06:12.036Z,85557.91
2023-03-31T10:08:40.496Z,85574.69
2023-03-31T10:11:11.583Z,85538.31
2023-03-31T10:13:53.311Z,85545.16
2023-03-31T10:16:33.405Z,85537.22
2023-03-31T10:19:34.588Z,85539.94
2023-03-31T10:22:07.414Z,85515.13
2023-03-31T10:24:45.622Z,85511.47
2023-03-31T10:27:19.879Z,85555.88
2023-03-31T10:29:47.618Z,85551.63
2023-03-31T10:32:23.263Z,85542.50
2023-03-31T10:34:50.803Z,85536.88
2023-03-31T10:37:22.664Z,85517.88
2023-03-31T10:39:59.212Z,85521.00
2023-03-31T10:42:27.931Z,85500.66
2023-03-31T10:45:11.372Z,85522.31
2023-03-31T10:47:40.018Z,85536.06
2023-03-31T10:50:17.089Z,85514.94
2023-03-31T10:52:47.599Z,85514.28
2023-03-31T10:55:30.559Z,85504.59
2023-03-31T10:58:21.212Z,85529.53
2023-03-31T11:01:14.707Z,85522.00
2023-03-31T11:03:57.331Z,85529.97
2023-03-31T11:06:44.974Z,85487.28
2023-03-31T11:09:37.174Z,85516.19
2023-03-31T11:12:24.791Z,85498.44
2023-03-31T11:14:59.386Z,85501.13
2023-03-31T11:17:32.078Z,85511.94
2023-03-31T11:20:15.089Z,85495.06
2023-03-31T11:22:59.221Z,85496.28
2023-03-31T11:25:32.042Z,85479.97
2023-03-31T11:28:34.496Z,85495.47
2023-03-31T11:31:22.391Z,85485.41
2023-03-31T11:34:08.216Z,85488.78
2023-03-31T11:36:38.040Z,85491.38
2023-03-31T11:39:40.457Z,85488.94
2023-03-31T11:42:16.103Z,85475.59
2023-03-31T11:44:53.131Z,85488.41
2023-03-31T11:47:24.685Z,85480.09
2023-03-31T11:49:53.442Z,85497.44
2023-03-31T11:52:43.777Z,85478.34
2023-03-31T11:55:23.011Z,85493.44
2023-03-31T11:58:02.839Z,85482.97
2023-03-31T12:00:38.960Z,85487.41
2023-03-31T12:03:23.410Z,85465.22
2023-03-31T12:05:59.911Z,85474.31
2023-03-31T12:08:31.218Z,85482.22
2023-03-31T12:11:09.751Z,85480.91
2023-03-31T12:13:41.514Z,85482.34
2023-03-31T12:16:11.814Z,85472.50
2023-03-31T12:19:03.385Z,85465.06
2023-03-31T12:21:32.985Z,85437.19
2023-03-31T12:24:00.012Z,85470.63
2023-03-31T12:26:43.026Z,85464.72
2023-03-31T12:29:47.202Z,85471.69
2023-03-31T12:32:21.641Z,85469.00
2023-03-31T12:34:57.137Z,85466.63
2023-03-31T12:37:50.098Z,85478.19
2023-03-31T12:40:52.920Z,85472.09
2023-03-31T12:43:52.788Z,85438.56
2023-03-31T12:46:47.571Z,85462.75
2023-03-31T12:49:39.253Z,85458.34
2023-03-31T12:52:12.976Z,85429.84
2023-03-31T12:55:04.399Z,85455.41
2023-03-31T12:57:31.703Z,85458.53
2023-03-31T13:00:21.188Z,85441.06
2023-03-31T13:02:49.641Z,85449.66
2023-03-31T13:05:38.724Z,85435.81
2023-03-31T13:08:08.572Z,85416.16
2023-03-31T13:11:11.176Z,85423.66
2023-03-31T13:13:58.140Z,85424.66
2023-03-31T13:16:31.846Z,85409.19
2023-03-31T13:18:59.347Z,85394.75
2023-03-31T13:21:26.898Z,85384.03
2023-03-31T13:23:54.242Z,85396.00
2023-03-31T13:26:41.862Z,85415.97
2023-03-31T13:29:14.926Z,85416.03
2023-03-31T13:32:04.040Z,85408.56
2023-03-31T13:34:35.249Z,85402.38
2023-03-31T13:37:45.591Z,85414.66
2023-03-31T13:40:40.132Z,85421.13
2023-03-31T13:43:28.335Z,85408.50
2023-03-31T13:45:58.066Z,85405.84
2023-03-31T13:48:36.520Z,85409.09
2023-03-31T13:51:26.947Z,85403.84
2023-03-31T13:54:12.585Z,85406.16
2023-03-31T13:56:39.558Z,85406.88
2023-03-31T13:59:15.200Z,85363.91
2023-03-31T14:02:24.341Z,85408.38
2023-03-31T14:05:00.143Z,85398.97
2023-03-31T14:07:44.496Z,85390.97
2023-03-31T14:10:39.382Z,85384.09
2023-03-31T14:13:10.881Z,85389.63
2023-03-31T14:15:42.428Z,85392.34
2023-03-31T14:18:15.908Z,85375.44
2023-03-31T14:21:13.780Z,85383.00
2023-03-31T14:24:13.431Z,85394.16
2023-03-31T14:26:52.713Z,85388.59
2023-03-31T14:29:28.418Z,85397.03
2023-03-31T14:32:32.112Z,85378.47
2023-03-31T14:35:29.144Z,85379.38
2023-03-31T14:37:57.610Z,85350.94
2023-03-31T14:40:25.542Z,85361.13
2023-03-31T14:42:52.768Z,85347.38
2023-03-31T14:45:25.680Z,85335.53
2023-03-31T14:47:56.326Z,85349.16
2023-03-31T14:50:30.019Z,85283.00
2023-03-31T14:52:57.492Z,85361.19
2023-03-31T14:55:35.668Z,85318.16
2023-03-31T14:58:22.480Z,85365.00
2023-03-31T15:00:49.743Z,85356.47
2023-03-31T15:03:17.924Z,85356.91
2023-03-31T15:05:48.839Z,85346.31
2023-03-31T15:08:22.940Z,85365.78
2023-03-31T15:10:58.896Z,85356.47
2023-03-31T15:13:36.935Z,85369.16
2023-03-31T15:16:20.432Z,85355.44
2023-03-31T15:18:48.133Z,85372.94
2023-03-31T15:21:27.461Z,85376.81
2023-03-31T15:23:58.388Z,85376.25
2023-03-31T15:26:51.738Z,85373.53
2023-03-31T15:29:44.733Z,85377.06
2023-03-31T15:32:21.172Z,85378.50
2023-03-31T15:34:50.782Z,85357.81
2023-03-31T15:37:27.885Z,85386.38
2023-03-31T15:40:00.644Z,85374.41
2023-03-31T15:42:29.006Z,85389.03
2023-03-31T15:45:14.239Z,85387.66
2023-03-31T15:47:48.821Z,85391.03
2023-03-31T15:50:16.386Z,85376.97
2023-03-31T15:52:53.294Z,85385.97
2023-03-31T15:55:26.871Z,85390.34
2023-03-31T15:57:56.057Z,85370.94
2023-03-31T16:00:32.312Z,85386.03
2023-03-31T16:03:06.203Z,85389.66
2023-03-31T16:05:53.605Z,85383.53
2023-03-31T16:08:50.974Z,85387.41
2023-03-31T16:11:23.543Z,85365.53
2023-03-31T16:13:54.288Z,85352.31
2023-03-31T16:16:23.921Z,85375.31
2023-03-31T16:18:55.552Z,85367.09
2023-03-31T16:21:26.705Z,85358.81
2023-03-31T16:23:57.227Z,85366.88
2023-03-31T16:26:27.995Z,85363.69
2023-03-31T16:28:57.707Z,85356.63
2023-03-31T16:31:36.921Z,85339.28
2023-03-31T16:34:09.199Z,85330.09
2023-03-31T16:36:38.082Z,85338.09
2023-03-31T16:39:06.806Z,85366.13
2023-03-31T16:41:35.990Z,85344.81
2023-03-31T16:44:03.516Z,85363.66
2023-03-31T16:46:30.581Z,85371.16
2023-03-31T16:48:57.753Z,85373.41
2023-03-31T16:51:24.812Z,85374.41
2023-03-31T16:53:51.806Z,85370.09
2023-03-31T16:56:19.380Z,85350.00
2023-03-31T16:58:46.611Z,85366.47
2023-03-31T17:01:13.732Z,85367.94
2023-03-31T17:03:42.292Z,85284.63
2023-03-31T17:06:12.524Z,85376.00
2023-03-31T17:08:40.447Z,85379.50
2023-03-31T17:11:11.808Z,85352.09
2023-03-31T17:13:41.769Z,85347.63
2023-03-31T17:16:19.293Z,85359.56
2023-03-31T17:18:57.487Z,85387.28
2023-03-31T17:21:24.882Z,85387.59
2023-03-31T17:23:51.939Z,85389.78
2023-03-31T17:26:19.315Z,85373.69
2023-03-31T17:28:46.639Z,85395.44
2023-03-31T17:31:15.830Z,85362.97
2023-03-31T17:33:43.808Z,85375.25
2023-03-31T17:36:11.648Z,85387.13
2023-03-31T17:38:40.026Z,85362.50
2023-03-31T17:41:10.061Z,85365.84
2023-03-31T17:43:38.340Z,85396.75
2023-03-31T17:46:13.631Z,85407.44
2023-03-31T17:48:41.394Z,85385.47
2023-03-31T17:51:12.140Z,85410.03
2023-03-31T17:53:40.110Z,85395.59
2023-03-31T17:56:07.014Z,85397.09
2023-03-31T17:58:34.056Z,85401.56
2023-03-31T18:01:01.106Z,85401.59
2023-03-31T18:03:29.004Z,85359.09
2023-03-31T18:05:56.030Z,85334.78
2023-03-31T18:08:23.297Z,85378.34
2023-03-31T18:10:50.736Z,85391.94
2023-03-31T18:13:17.891Z,85391.38
2023-03-31T18:15:54.175Z,85382.66
2023-03-31T18:18:23.354Z,85384.13
2023-03-31T18:20:50.536Z,85371.84
2023-03-31T18:23:17.711Z,85398.66
2023-03-31T18:25:48.232Z,85364.47
2023-03-31T18:28:17.089Z,85387.09
2023-03-31T18:30:44.394Z,85395.91
2023-03-31T18:33:13.001Z,85377.63
2023-03-31T18:35:40.478Z,85386.53
2023-03-31T18:38:07.880Z,85392.56
2023-03-31T18:40:34.840Z,85398.97
2023-03-31T18:43:02.898Z,85391.44
2023-03-31T18:45:30.949Z,85364.22
2023-03-31T18:47:58.734Z,85394.84
2023-03-31T18:50:26.169Z,85376.00
2023-03-31T18:52:54.854Z,85378.09
2023-03-31T18:55:22.713Z,85398.59
2023-03-31T18:57:50.027Z,85373.38
2023-03-31T19:00:17.844Z,85390.69
2023-03-31T19:02:45.220Z,85391.84
2023-03-31T19:05:12.548Z,85392.53
2023-03-31T19:07:40.798Z,85389.44
2023-03-31T19:10:08.523Z,85365.41
2023-03-31T19:12:35.592Z,85361.09
2023-03-31T19:15:02.686Z,85383.34
2023-03-31T19:17:29.981Z,85367.09
2023-03-31T19:19:57.039Z,85339.13
2023-03-31T19:22:25.720Z,85380.03
2023-03-31T19:24:53.243Z,85367.16
2023-03-31T19:27:20.362Z,85366.28
2023-03-31T19:29:47.561Z,85373.47
2023-03-31T19:32:14.578Z,85381.56
2023-03-31T19:34:42.716Z,85372.03
2023-03-31T19:37:10.066Z,85365.03
2023-03-31T19:39:37.620Z,85370.34
2023-03-31T19:42:04.765Z,85357.31
2023-03-31T19:44:31.738Z,85382.25
2023-03-31T19:46:58.986Z,85342.28
2023-03-31T19:49:27.083Z,85335.69
2023-03-31T19:51:56.007Z,85348.72
2023-03-31T19:54:23.179Z,85355.38
2023-03-31T19:56:50.285Z,85363.81
2023-03-31T19:59:17.758Z,85347.50
2023-03-31T20:01:44.874Z,85360.28
2023-03-31T20:04:14.273Z,85347.38
2023-03-31T20:06:41.834Z,85368.28
2023-03-31T20:09:16.161Z,85355.06
2023-03-31T20:11:43.592Z,85341.94
2023-03-31T20:14:11.300Z,85356.94
2023-03-31T20:16:38.427Z,85377.34
2023-03-31T20:19:08.637Z,85376.81
2023-03-31T20:21:37.909Z,85370.75
2023-03-31T20:24:15.023Z,85354.41
2023-03-31T20:26:42.211Z,85372.16
2023-03-31T20:29:11.431Z,85367.47
2023-03-31T20:31:40.239Z,85336.69
2023-03-31T20:34:14.246Z,85350.28
2023-03-31T20:36:43.067Z,85359.72
2023-03-31T20:39:11.613Z,85362.38
2023-03-31T20:41:38.782Z,85337.91
2023-03-31T20:44:07.679Z,85359.41
2023-03-31T20:46:34.864Z,85320.25
2023-03-31T20:49:02.130Z,85332.25
2023-03-31T20:51:31.639Z,85326.13
2023-03-31T20:54:00.283Z,85319.94
2023-03-31T20:56:33.973Z,85338.97
2023-03-31T20:59:02.306Z,85327.41
2023-03-31T21:01:32.831Z,85337.06
2023-03-31T21:04:01.786Z,85342.34
2023-03-31T21:06:32.635Z,85353.31
2023-03-31T21:08:59.924Z,85311.09
2023-03-31T21:11:32.268Z,85343.06
2023-03-31T21:13:59.481Z,85299.66
2023-03-31T21:16:27.120Z,85336.34
2023-03-31T21:18:58.765Z,85313.28
2023-03-31T21:21:27.280Z,85325.41
2023-03-31T21:23:54.780Z,85334.97
2023-03-31T21:26:22.357Z,85307.66
2023-03-31T21:28:51.862Z,85329.56
2023-03-31T21:31:19.387Z,85335.28
2023-03-31T21:33:47.639Z,85321.47
2023-03-31T21:36:17.990Z,85333.81
2023-03-31T21:38:45.846Z,85328.88
2023-03-31T21:41:15.506Z,85331.53
2023-03-31T21:43:43.385Z,85327.28
2023-03-31T21:46:17.135Z,85330.06
2023-03-31T21:48:44.506Z,85321.84
2023-03-31T21:51:12.057Z,85321.91
2023-03-31T21:53:39.440Z,85323.22
2023-03-31T21:56:06.642Z,85321.31
2023-03-31T21:58:33.857Z,85304.38
2023-03-31T22:01:04.105Z,85309.53
2023-03-31T22:03:34.611Z,85313.22
2023-03-31T22:06:03.674Z,85319.53
2023-03-31T22:08:31.796Z,85309.91
2023-03-31T22:11:00.540Z,85316.69
2023-03-31T22:13:28.921Z,85314.84
2023-03-31T22:15:57.108Z,85319.63
2023-03-31T22:18:24.285Z,85235.88
2023-03-31T22:20:51.752Z,85323.88
2023-03-31T22:23:21.598Z,85323.72
2023-03-31T22:25:49.204Z,85315.50
2023-03-31T22:28:17.028Z,85300.34
2023-03-31T22:30:44.318Z,85318.13
2023-03-31T22:33:11.507Z,85287.34
2023-03-31T22:35:38.724Z,85282.72
2023-03-31T22:38:06.638Z,85301.91
2023-03-31T22:40:35.380Z,85313.53
2023-03-31T22:43:02.547Z,85303.88
2023-03-31T22:45:29.882Z,85282.09
2023-03-31T22:47:57.255Z,85283.47
2023-03-31T22:50:24.868Z,85302.44
2023-03-31T22:52:52.198Z,85267.84
2023-03-31T22:55:19.641Z,85267.94
2023-03-31T22:57:46.917Z,85293.75
2023-03-31T23:00:14.316Z,85300.13
2023-03-31T23:02:42.417Z,85298.03
2023-03-31T23:05:14.707Z,85292.75
2023-03-31T23:07:41.895Z,85254.53
2023-03-31T23:10:09.501Z,85240.72
2023-03-31T23:12:36.905Z,85224.47
2023-03-31T23:15:04.218Z,85268.09
2023-03-31T23:17:31.513Z,85289.19
2023-03-31T23:19:58.643Z,85286.41
2023-03-31T23:22:25.986Z,85285.16
2023-03-31T23:24:53.219Z,85226.47
2023-03-31T23:27:20.596Z,85276.13
2023-03-31T23:29:47.728Z,85250.16
2023-03-31T23:32:14.879Z,85213.00
2023-03-31T23:34:42.539Z,85260.84
2023-03-31T23:37:11.394Z,85256.13
2023-03-31T23:39:39.096Z,85262.94
2023-03-31T23:42:07.633Z,85231.63
2023-03-31T23:44:37.210Z,85245.22
2023-03-31T23:47:05.663Z,85247.34
2023-03-31T23:49:32.796Z,85250.09
2023-03-31T23:51:59.847Z,85227.41
2023-03-31T23:54:27.351Z,85244.47
2023-03-31T23:56:54.554Z,85236.25
2023-03-31T23:59:21.712Z,85240.38
